sensor_id;sensor_type;location;lat;lon;timestamp;temperature;humidity
12568;DHT22;6349;50.904;6.136;2024-03-02T00:01:03;9.30;99.90
12568;DHT22;6349;50.904;6.136;2024-03-02T00:03:03;9.30;99.90
12568;DHT22;6349;50.904;6.136;2024-03-02T00:05:04;9.40;99.90
12568;DHT22;6349;50.904;6.136;2024-03-02T00:07:06;9.40;99.90
12568;DHT22;6349;50.904;6.136;2024-03-02T00:09:09;9.40;99.90
12568;DHT22;6349;50.904;6.136;2024-03-02T00:11:11;9.40;99.90
12568;DHT22;6349;50.904;6.136;2024-03-02T00:13:14;9.40;99.90
12568;DHT22;6349;50.904;6.136;2024-03-02T00:15:46;9.40;99.90
12568;DHT22;6349;50.904;6.136;2024-03-02T00:17:53;9.30;99.90
12568;DHT22;6349;50.904;6.136;2024-03-02T00:19:53;9.40;99.90
12568;DHT22;6349;50.904;6.136;2024-03-02T00:21:54;9.40;99.90
12568;DHT22;6349;50.904;6.136;2024-03-02T00:23:55;9.40;99.90
12568;DHT22;6349;50.904;6.136;2024-03-02T00:25:55;9.40;99.90
12568;DHT22;6349;50.904;6.136;2024-03-02T00:27:56;9.40;99.90
12568;DHT22;6349;50.904;6.136;2024-03-02T00:29:57;9.40;99.90
12568;DHT22;6349;50.904;6.136;2024-03-02T00:31:57;9.40;99.90
12568;DHT22;6349;50.904;6.136;2024-03-02T00:34:02;9.40;99.90
12568;DHT22;6349;50.904;6.136;2024-03-02T00:36:05;9.30;99.90
12568;DHT22;6349;50.904;6.136;2024-03-02T00:38:07;9.40;99.90
12568;DHT22;6349;50.904;6.136;2024-03-02T00:40:08;9.40;99.90
12568;DHT22;6349;50.904;6.136;2024-03-02T00:42:09;9.30;99.90
12568;DHT22;6349;50.904;6.136;2024-03-02T00:44:12;9.30;99.90
12568;DHT22;6349;50.904;6.136;2024-03-02T00:46:15;9.30;99.90
12568;DHT22;6349;50.904;6.136;2024-03-02T00:48:16;9.30;99.90
12568;DHT22;6349;50.904;6.136;2024-03-02T00:50:17;9.40;99.90
12568;DHT22;6349;50.904;6.136;2024-03-02T00:52:17;9.40;99.90
12568;DHT22;6349;50.904;6.136;2024-03-02T00:54:23;9.40;99.90
12568;DHT22;6349;50.904;6.136;2024-03-02T00:56:25;9.40;99.90
12568;DHT22;6349;50.904;6.136;2024-03-02T00:58:27;9.40;99.90
12568;DHT22;6349;50.904;6.136;2024-03-02T01:00:27;9.40;99.90
12568;DHT22;6349;50.904;6.136;2024-03-02T01:02:28;9.40;99.90
12568;DHT22;6349;50.904;6.136;2024-03-02T01:04:29;9.40;99.90
12568;DHT22;6349;50.904;6.136;2024-03-02T01:06:30;9.40;99.90
12568;DHT22;6349;50.904;6.136;2024-03-02T01:08:31;9.40;99.90
12568;DHT22;6349;50.904;6.136;2024-03-02T01:10:31;9.40;99.90
12568;DHT22;6349;50.904;6.136;2024-03-02T01:12:32;9.40;99.90
12568;DHT22;6349;50.904;6.136;2024-03-02T01:14:33;9.40;99.90
12568;DHT22;6349;50.904;6.136;2024-03-02T01:16:35;9.40;99.90
12568;DHT22;6349;50.904;6.136;2024-03-02T01:18:35;9.40;99.90
12568;DHT22;6349;50.904;6.136;2024-03-02T01:20:36;9.50;99.90
12568;DHT22;6349;50.904;6.136;2024-03-02T01:22:36;9.50;99.90
12568;DHT22;6349;50.904;6.136;2024-03-02T01:24:37;9.40;99.90
12568;DHT22;6349;50.904;6.136;2024-03-02T01:26:38;9.40;99.90
12568;DHT22;6349;50.904;6.136;2024-03-02T01:28:39;9.40;99.90
12568;DHT22;6349;50.904;6.136;2024-03-02T01:30:39;9.40;99.90
12568;DHT22;6349;50.904;6.136;2024-03-02T01:32:40;9.50;99.90
12568;DHT22;6349;50.904;6.136;2024-03-02T01:34:41;9.50;99.90
12568;DHT22;6349;50.904;6.136;2024-03-02T01:36:41;9.50;99.90
12568;DHT22;6349;50.904;6.136;2024-03-02T01:38:42;9.50;99.90
12568;DHT22;6349;50.904;6.136;2024-03-02T01:40:42;9.50;99.90
12568;DHT22;6349;50.904;6.136;2024-03-02T01:42:44;9.50;99.90
12568;DHT22;6349;50.904;6.136;2024-03-02T01:44:45;9.50;99.90
12568;DHT22;6349;50.904;6.136;2024-03-02T01:46:46;9.50;99.90
12568;DHT22;6349;50.904;6.136;2024-03-02T01:48:46;9.50;99.90
12568;DHT22;6349;50.904;6.136;2024-03-02T01:50:48;9.40;99.90
12568;DHT22;6349;50.904;6.136;2024-03-02T01:52:48;9.40;99.90
12568;DHT22;6349;50.904;6.136;2024-03-02T01:54:49;9.30;99.90
12568;DHT22;6349;50.904;6.136;2024-03-02T01:56:49;9.20;99.90
12568;DHT22;6349;50.904;6.136;2024-03-02T01:58:50;9.10;99.90
12568;DHT22;6349;50.904;6.136;2024-03-02T02:00:51;9.10;99.90
12568;DHT22;6349;50.904;6.136;2024-03-02T02:02:51;9.00;99.90
12568;DHT22;6349;50.904;6.136;2024-03-02T02:04:52;9.00;99.90
12568;DHT22;6349;50.904;6.136;2024-03-02T02:06:53;9.00;99.90
12568;DHT22;6349;50.904;6.136;2024-03-02T02:08:54;8.90;99.90
12568;DHT22;6349;50.904;6.136;2024-03-02T02:10:54;8.90;99.90
12568;DHT22;6349;50.904;6.136;2024-03-02T02:12:55;8.90;99.90
12568;DHT22;6349;50.904;6.136;2024-03-02T02:14:56;8.80;99.90
12568;DHT22;6349;50.904;6.136;2024-03-02T02:16:56;8.80;99.90
12568;DHT22;6349;50.904;6.136;2024-03-02T02:18:57;8.70;99.90
12568;DHT22;6349;50.904;6.136;2024-03-02T02:20:58;8.70;99.90
12568;DHT22;6349;50.904;6.136;2024-03-02T02:23:00;8.60;99.90
12568;DHT22;6349;50.904;6.136;2024-03-02T02:25:01;8.60;99.90
12568;DHT22;6349;50.904;6.136;2024-03-02T02:27:02;8.50;99.90
12568;DHT22;6349;50.904;6.136;2024-03-02T02:29:02;8.50;99.90
12568;DHT22;6349;50.904;6.136;2024-03-02T02:31:03;8.50;99.90
12568;DHT22;6349;50.904;6.136;2024-03-02T02:33:04;8.40;99.90
12568;DHT22;6349;50.904;6.136;2024-03-02T02:35:05;8.40;99.90
12568;DHT22;6349;50.904;6.136;2024-03-02T02:37:05;8.40;99.90
12568;DHT22;6349;50.904;6.136;2024-03-02T02:39:08;8.40;99.90
12568;DHT22;6349;50.904;6.136;2024-03-02T02:41:11;8.30;99.90
12568;DHT22;6349;50.904;6.136;2024-03-02T02:43:11;8.30;99.90
12568;DHT22;6349;50.904;6.136;2024-03-02T02:45:12;8.30;99.90
12568;DHT22;6349;50.904;6.136;2024-03-02T02:47:14;8.20;99.90
12568;DHT22;6349;50.904;6.136;2024-03-02T02:49:15;8.20;99.90
12568;DHT22;6349;50.904;6.136;2024-03-02T02:51:16;8.20;99.90
12568;DHT22;6349;50.904;6.136;2024-03-02T02:53:17;8.20;99.90
12568;DHT22;6349;50.904;6.136;2024-03-02T02:55:17;8.10;99.90
12568;DHT22;6349;50.904;6.136;2024-03-02T02:57:18;8.00;99.90
12568;DHT22;6349;50.904;6.136;2024-03-02T02:59:18;7.90;99.90
12568;DHT22;6349;50.904;6.136;2024-03-02T03:01:19;7.90;99.90
12568;DHT22;6349;50.904;6.136;2024-03-02T03:03:20;7.80;99.90
12568;DHT22;6349;50.904;6.136;2024-03-02T03:05:20;7.70;99.90
12568;DHT22;6349;50.904;6.136;2024-03-02T03:07:21;7.70;99.90
12568;DHT22;6349;50.904;6.136;2024-03-02T03:09:21;7.70;99.90
12568;DHT22;6349;50.904;6.136;2024-03-02T03:11:22;7.60;99.90
12568;DHT22;6349;50.904;6.136;2024-03-02T03:13:23;7.50;99.90
12568;DHT22;6349;50.904;6.136;2024-03-02T03:15:23;7.50;99.90
12568;DHT22;6349;50.904;6.136;2024-03-02T03:17:24;7.50;99.90
12568;DHT22;6349;50.904;6.136;2024-03-02T03:19:24;7.50;99.90
12568;DHT22;6349;50.904;6.136;2024-03-02T03:21:25;7.40;99.90
12568;DHT22;6349;50.904;6.136;2024-03-02T03:23:25;7.50;99.90
12568;DHT22;6349;50.904;6.136;2024-03-02T03:25:26;7.50;99.90
12568;DHT22;6349;50.904;6.136;2024-03-02T03:27:27;7.50;99.90
12568;DHT22;6349;50.904;6.136;2024-03-02T03:29:27;7.40;99.90
12568;DHT22;6349;50.904;6.136;2024-03-02T03:31:29;7.40;99.90
12568;DHT22;6349;50.904;6.136;2024-03-02T03:33:29;7.50;99.90
12568;DHT22;6349;50.904;6.136;2024-03-02T03:35:30;7.40;99.90
12568;DHT22;6349;50.904;6.136;2024-03-02T03:37:31;7.40;99.90
12568;DHT22;6349;50.904;6.136;2024-03-02T03:39:34;7.40;99.90
12568;DHT22;6349;50.904;6.136;2024-03-02T03:41:36;7.40;99.90
12568;DHT22;6349;50.904;6.136;2024-03-02T03:43:36;7.40;99.90
12568;DHT22;6349;50.904;6.136;2024-03-02T03:45:37;7.40;99.90
12568;DHT22;6349;50.904;6.136;2024-03-02T03:47:38;7.40;99.90
12568;DHT22;6349;50.904;6.136;2024-03-02T03:49:38;7.40;99.90
12568;DHT22;6349;50.904;6.136;2024-03-02T03:51:39;7.40;99.90
12568;DHT22;6349;50.904;6.136;2024-03-02T03:53:40;7.40;99.90
12568;DHT22;6349;50.904;6.136;2024-03-02T03:55:40;7.40;99.90
12568;DHT22;6349;50.904;6.136;2024-03-02T03:57:41;7.40;99.90
12568;DHT22;6349;50.904;6.136;2024-03-02T03:59:42;7.40;99.90
12568;DHT22;6349;50.904;6.136;2024-03-02T04:01:43;7.40;99.90
12568;DHT22;6349;50.904;6.136;2024-03-02T04:03:43;7.40;99.90
12568;DHT22;6349;50.904;6.136;2024-03-02T04:05:44;7.40;99.90
12568;DHT22;6349;50.904;6.136;2024-03-02T04:07:44;7.40;99.90
12568;DHT22;6349;50.904;6.136;2024-03-02T04:09:45;7.40;99.90
12568;DHT22;6349;50.904;6.136;2024-03-02T04:11:45;7.40;99.90
12568;DHT22;6349;50.904;6.136;2024-03-02T04:13:46;7.50;99.90
12568;DHT22;6349;50.904;6.136;2024-03-02T04:15:47;7.50;99.90
12568;DHT22;6349;50.904;6.136;2024-03-02T04:17:47;7.50;99.90
12568;DHT22;6349;50.904;6.136;2024-03-02T04:19:48;7.50;99.90
12568;DHT22;6349;50.904;6.136;2024-03-02T04:21:49;7.50;99.90
12568;DHT22;6349;50.904;6.136;2024-03-02T04:23:49;7.60;99.90
12568;DHT22;6349;50.904;6.136;2024-03-02T04:25:50;7.60;99.90
12568;DHT22;6349;50.904;6.136;2024-03-02T04:27:50;7.60;99.90
12568;DHT22;6349;50.904;6.136;2024-03-02T04:29:51;7.60;99.90
12568;DHT22;6349;50.904;6.136;2024-03-02T04:31:52;7.60;99.90
12568;DHT22;6349;50.904;6.136;2024-03-02T04:33:52;7.60;99.90
12568;DHT22;6349;50.904;6.136;2024-03-02T04:35:53;7.60;99.90
12568;DHT22;6349;50.904;6.136;2024-03-02T04:37:53;7.60;99.90
12568;DHT22;6349;50.904;6.136;2024-03-02T04:39:54;7.60;99.90
12568;DHT22;6349;50.904;6.136;2024-03-02T04:41:54;7.70;99.90
12568;DHT22;6349;50.904;6.136;2024-03-02T04:43:55;7.70;99.10
12568;DHT22;6349;50.904;6.136;2024-03-02T04:45:56;7.70;98.40
12568;DHT22;6349;50.904;6.136;2024-03-02T04:47:56;7.70;97.20
12568;DHT22;6349;50.904;6.136;2024-03-02T04:49:57;7.70;96.00
12568;DHT22;6349;50.904;6.136;2024-03-02T04:51:57;7.70;94.10
12568;DHT22;6349;50.904;6.136;2024-03-02T04:53:58;7.70;93.00
12568;DHT22;6349;50.904;6.136;2024-03-02T04:55:59;7.70;91.50
12568;DHT22;6349;50.904;6.136;2024-03-02T04:58:18;7.70;85.40
12568;DHT22;6349;50.904;6.136;2024-03-02T05:00:19;7.70;75.50
12568;DHT22;6349;50.904;6.136;2024-03-02T05:02:20;7.80;77.60
12568;DHT22;6349;50.904;6.136;2024-03-02T05:04:20;7.70;77.60
12568;DHT22;6349;50.904;6.136;2024-03-02T05:06:21;7.70;78.90
12568;DHT22;6349;50.904;6.136;2024-03-02T05:08:21;7.70;77.00
12568;DHT22;6349;50.904;6.136;2024-03-02T05:10:22;7.70;71.00
12568;DHT22;6349;50.904;6.136;2024-03-02T05:12:23;7.70;69.10
12568;DHT22;6349;50.904;6.136;2024-03-02T05:14:49;7.70;67.60
12568;DHT22;6349;50.904;6.136;2024-03-02T05:16:50;7.70;67.20
12568;DHT22;6349;50.904;6.136;2024-03-02T05:18:51;7.70;70.30
12568;DHT22;6349;50.904;6.136;2024-03-02T05:20:51;7.70;68.10
12568;DHT22;6349;50.904;6.136;2024-03-02T05:22:52;7.70;69.60
12568;DHT22;6349;50.904;6.136;2024-03-02T05:24:52;7.70;73.50
12568;DHT22;6349;50.904;6.136;2024-03-02T05:26:53;7.70;74.70
12568;DHT22;6349;50.904;6.136;2024-03-02T05:28:54;7.70;71.40
12568;DHT22;6349;50.904;6.136;2024-03-02T05:30:54;7.60;70.60
12568;DHT22;6349;50.904;6.136;2024-03-02T05:32:55;7.60;69.60
12568;DHT22;6349;50.904;6.136;2024-03-02T05:34:56;7.60;65.40
12568;DHT22;6349;50.904;6.136;2024-03-02T05:36:56;7.60;64.30
12568;DHT22;6349;50.904;6.136;2024-03-02T05:38:58;7.70;60.40
12568;DHT22;6349;50.904;6.136;2024-03-02T05:40:58;7.70;58.40
12568;DHT22;6349;50.904;6.136;2024-03-02T05:42:59;7.60;54.70
12568;DHT22;6349;50.904;6.136;2024-03-02T05:44:59;7.70;55.50
12568;DHT22;6349;50.904;6.136;2024-03-02T05:47:00;7.60;54.50
12568;DHT22;6349;50.904;6.136;2024-03-02T05:49:01;7.60;57.40
12568;DHT22;6349;50.904;6.136;2024-03-02T05:51:01;7.60;59.10
12568;DHT22;6349;50.904;6.136;2024-03-02T05:53:02;7.60;59.50
12568;DHT22;6349;50.904;6.136;2024-03-02T05:55:03;7.60;57.90
12568;DHT22;6349;50.904;6.136;2024-03-02T05:57:05;7.60;56.20
12568;DHT22;6349;50.904;6.136;2024-03-02T05:59:32;7.60;52.30
12568;DHT22;6349;50.904;6.136;2024-03-02T06:01:33;7.60;57.10
12568;DHT22;6349;50.904;6.136;2024-03-02T06:03:33;7.60;61.00
12568;DHT22;6349;50.904;6.136;2024-03-02T06:05:34;7.60;61.00
12568;DHT22;6349;50.904;6.136;2024-03-02T06:07:34;7.50;59.00
12568;DHT22;6349;50.904;6.136;2024-03-02T06:09:35;7.60;56.40
12568;DHT22;6349;50.904;6.136;2024-03-02T06:11:39;7.60;54.40
12568;DHT22;6349;50.904;6.136;2024-03-02T06:13:40;7.60;48.20
12568;DHT22;6349;50.904;6.136;2024-03-02T06:15:41;7.60;47.30
12568;DHT22;6349;50.904;6.136;2024-03-02T06:17:42;7.60;49.30
12568;DHT22;6349;50.904;6.136;2024-03-02T06:19:42;7.60;45.80
12568;DHT22;6349;50.904;6.136;2024-03-02T06:21:43;7.60;45.40
12568;DHT22;6349;50.904;6.136;2024-03-02T06:23:43;7.60;43.80
12568;DHT22;6349;50.904;6.136;2024-03-02T06:25:44;7.60;36.90
12568;DHT22;6349;50.904;6.136;2024-03-02T06:27:45;7.60;29.20
12568;DHT22;6349;50.904;6.136;2024-03-02T06:29:45;7.60;24.00
12568;DHT22;6349;50.904;6.136;2024-03-02T06:31:46;7.60;19.40
12568;DHT22;6349;50.904;6.136;2024-03-02T06:33:46;7.60;13.40
12568;DHT22;6349;50.904;6.136;2024-03-02T06:35:47;7.60;1.00
12568;DHT22;6349;50.904;6.136;2024-03-02T06:37:49;7.60;1.00
12568;DHT22;6349;50.904;6.136;2024-03-02T06:39:50;7.60;6.20
12568;DHT22;6349;50.904;6.136;2024-03-02T06:41:51;7.60;1.00
12568;DHT22;6349;50.904;6.136;2024-03-02T06:43:51;7.70;1.00
12568;DHT22;6349;50.904;6.136;2024-03-02T06:45:59;7.60;1.00
12568;DHT22;6349;50.904;6.136;2024-03-02T06:48:00;7.60;1.00
12568;DHT22;6349;50.904;6.136;2024-03-02T06:50:00;7.70;1.00
12568;DHT22;6349;50.904;6.136;2024-03-02T06:52:01;7.60;1.00
12568;DHT22;6349;50.904;6.136;2024-03-02T06:54:01;7.60;1.00
12568;DHT22;6349;50.904;6.136;2024-03-02T06:56:03;7.60;1.00
12568;DHT22;6349;50.904;6.136;2024-03-02T06:58:04;7.60;1.00
12568;DHT22;6349;50.904;6.136;2024-03-02T07:00:05;7.60;1.00
12568;DHT22;6349;50.904;6.136;2024-03-02T07:02:09;7.70;1.00
12568;DHT22;6349;50.904;6.136;2024-03-02T07:04:09;7.70;1.00
12568;DHT22;6349;50.904;6.136;2024-03-02T07:06:10;7.70;1.00
12568;DHT22;6349;50.904;6.136;2024-03-02T07:08:10;7.70;1.00
12568;DHT22;6349;50.904;6.136;2024-03-02T07:10:11;7.70;1.00
12568;DHT22;6349;50.904;6.136;2024-03-02T07:12:12;7.70;1.00
12568;DHT22;6349;50.904;6.136;2024-03-02T07:14:12;7.70;1.00
12568;DHT22;6349;50.904;6.136;2024-03-02T07:16:13;7.70;1.00
12568;DHT22;6349;50.904;6.136;2024-03-02T07:18:29;7.70;1.00
12568;DHT22;6349;50.904;6.136;2024-03-02T07:20:29;7.70;1.00
12568;DHT22;6349;50.904;6.136;2024-03-02T07:22:30;7.60;1.00
12568;DHT22;6349;50.904;6.136;2024-03-02T07:24:30;7.60;1.00
12568;DHT22;6349;50.904;6.136;2024-03-02T07:26:31;7.60;1.00
12568;DHT22;6349;50.904;6.136;2024-03-02T07:28:32;7.60;1.00
12568;DHT22;6349;50.904;6.136;2024-03-02T07:30:32;7.60;1.00
12568;DHT22;6349;50.904;6.136;2024-03-02T07:32:34;7.60;1.00
12568;DHT22;6349;50.904;6.136;2024-03-02T07:34:34;7.60;1.00
12568;DHT22;6349;50.904;6.136;2024-03-02T07:36:35;7.60;1.00
12568;DHT22;6349;50.904;6.136;2024-03-02T07:38:37;7.60;1.00
12568;DHT22;6349;50.904;6.136;2024-03-02T07:40:37;7.60;1.00
12568;DHT22;6349;50.904;6.136;2024-03-02T07:42:39;7.60;1.00
12568;DHT22;6349;50.904;6.136;2024-03-02T07:44:40;7.70;1.00
12568;DHT22;6349;50.904;6.136;2024-03-02T07:46:42;7.70;1.00
12568;DHT22;6349;50.904;6.136;2024-03-02T07:48:43;7.70;1.00
12568;DHT22;6349;50.904;6.136;2024-03-02T07:50:44;7.70;1.00
12568;DHT22;6349;50.904;6.136;2024-03-02T07:52:45;7.70;1.00
12568;DHT22;6349;50.904;6.136;2024-03-02T07:54:46;7.80;1.00
12568;DHT22;6349;50.904;6.136;2024-03-02T07:56:46;7.80;1.00
12568;DHT22;6349;50.904;6.136;2024-03-02T07:58:51;8.00;1.00
12568;DHT22;6349;50.904;6.136;2024-03-02T08:00:51;8.00;1.00
12568;DHT22;6349;50.904;6.136;2024-03-02T08:02:52;8.20;1.00
12568;DHT22;6349;50.904;6.136;2024-03-02T08:04:52;8.30;99.90
12568;DHT22;6349;50.904;6.136;2024-03-02T08:06:53;8.40;99.90
12568;DHT22;6349;50.904;6.136;2024-03-02T08:08:56;8.50;1.00
12568;DHT22;6349;50.904;6.136;2024-03-02T08:10:57;8.50;99.90
12568;DHT22;6349;50.904;6.136;2024-03-02T08:12:58;8.60;99.90
12568;DHT22;6349;50.904;6.136;2024-03-02T08:14:58;8.60;99.90
12568;DHT22;6349;50.904;6.136;2024-03-02T08:16:59;8.70;99.90
12568;DHT22;6349;50.904;6.136;2024-03-02T08:19:01;8.70;99.90
12568;DHT22;6349;50.904;6.136;2024-03-02T08:21:04;8.80;1.00
12568;DHT22;6349;50.904;6.136;2024-03-02T08:23:04;8.80;1.00
12568;DHT22;6349;50.904;6.136;2024-03-02T08:25:05;8.80;99.90
12568;DHT22;6349;50.904;6.136;2024-03-02T08:27:06;8.90;1.00
12568;DHT22;6349;50.904;6.136;2024-03-02T08:29:10;8.90;99.90
12568;DHT22;6349;50.904;6.136;2024-03-02T08:31:11;8.90;99.90
12568;DHT22;6349;50.904;6.136;2024-03-02T08:33:12;8.90;1.00
12568;DHT22;6349;50.904;6.136;2024-03-02T08:35:13;8.90;1.00
12568;DHT22;6349;50.904;6.136;2024-03-02T08:37:14;8.90;1.00
12568;DHT22;6349;50.904;6.136;2024-03-02T08:39:14;8.90;1.00
12568;DHT22;6349;50.904;6.136;2024-03-02T08:41:20;9.00;35.60
12568;DHT22;6349;50.904;6.136;2024-03-02T08:43:20;9.00;1.00
12568;DHT22;6349;50.904;6.136;2024-03-02T08:45:22;9.00;1.00
12568;DHT22;6349;50.904;6.136;2024-03-02T08:47:23;9.10;99.90
12568;DHT22;6349;50.904;6.136;2024-03-02T08:49:24;9.00;99.90
12568;DHT22;6349;50.904;6.136;2024-03-02T08:51:24;9.10;99.90
12568;DHT22;6349;50.904;6.136;2024-03-02T08:53:25;9.10;99.90
12568;DHT22;6349;50.904;6.136;2024-03-02T08:55:25;9.10;99.90
12568;DHT22;6349;50.904;6.136;2024-03-02T08:57:26;9.10;99.90
12568;DHT22;6349;50.904;6.136;2024-03-02T08:59:26;9.10;99.90
12568;DHT22;6349;50.904;6.136;2024-03-02T09:01:28;9.20;99.90
12568;DHT22;6349;50.904;6.136;2024-03-02T09:03:28;9.30;99.90
12568;DHT22;6349;50.904;6.136;2024-03-02T09:05:29;9.30;99.90
12568;DHT22;6349;50.904;6.136;2024-03-02T09:07:30;9.30;99.90
12568;DHT22;6349;50.904;6.136;2024-03-02T09:09:30;9.30;99.90
12568;DHT22;6349;50.904;6.136;2024-03-02T09:11:32;9.40;57.30
12568;DHT22;6349;50.904;6.136;2024-03-02T09:13:33;9.40;99.90
12568;DHT22;6349;50.904;6.136;2024-03-02T09:15:34;9.50;99.90
12568;DHT22;6349;50.904;6.136;2024-03-02T09:17:37;9.50;99.90
12568;DHT22;6349;50.904;6.136;2024-03-02T09:19:38;9.60;99.90
12568;DHT22;6349;50.904;6.136;2024-03-02T09:21:39;9.60;99.90
12568;DHT22;6349;50.904;6.136;2024-03-02T09:23:40;9.60;25.70
12568;DHT22;6349;50.904;6.136;2024-03-02T09:25:41;9.70;19.90
12568;DHT22;6349;50.904;6.136;2024-03-02T09:27:41;9.70;99.90
12568;DHT22;6349;50.904;6.136;2024-03-02T09:29:42;9.70;41.60
12568;DHT22;6349;50.904;6.136;2024-03-02T09:31:43;9.80;1.00
12568;DHT22;6349;50.904;6.136;2024-03-02T09:33:43;9.80;1.00
12568;DHT22;6349;50.904;6.136;2024-03-02T09:35:44;9.80;1.00
12568;DHT22;6349;50.904;6.136;2024-03-02T09:37:45;9.80;1.00
12568;DHT22;6349;50.904;6.136;2024-03-02T09:39:45;9.90;1.00
12568;DHT22;6349;50.904;6.136;2024-03-02T09:41:47;9.90;1.00
12568;DHT22;6349;50.904;6.136;2024-03-02T09:43:48;10.00;1.00
12568;DHT22;6349;50.904;6.136;2024-03-02T09:45:50;10.00;1.00
12568;DHT22;6349;50.904;6.136;2024-03-02T09:47:51;10.10;1.00
12568;DHT22;6349;50.904;6.136;2024-03-02T09:49:52;10.10;1.00
12568;DHT22;6349;50.904;6.136;2024-03-02T09:51:53;10.20;1.00
12568;DHT22;6349;50.904;6.136;2024-03-02T09:53:55;10.20;1.00
12568;DHT22;6349;50.904;6.136;2024-03-02T09:55:55;10.30;1.00
12568;DHT22;6349;50.904;6.136;2024-03-02T09:57:56;10.30;1.00
12568;DHT22;6349;50.904;6.136;2024-03-02T09:59:57;10.40;1.00
12568;DHT22;6349;50.904;6.136;2024-03-02T10:02:02;10.40;1.00
12568;DHT22;6349;50.904;6.136;2024-03-02T10:04:04;10.50;1.00
12568;DHT22;6349;50.904;6.136;2024-03-02T10:06:27;10.60;1.00
12568;DHT22;6349;50.904;6.136;2024-03-02T10:08:42;10.60;1.00
12568;DHT22;6349;50.904;6.136;2024-03-02T10:10:43;10.70;1.00
12568;DHT22;6349;50.904;6.136;2024-03-02T10:12:44;10.60;1.00
12568;DHT22;6349;50.904;6.136;2024-03-02T10:14:45;10.70;1.00
12568;DHT22;6349;50.904;6.136;2024-03-02T10:16:48;10.70;1.00
12568;DHT22;6349;50.904;6.136;2024-03-02T10:18:49;10.80;1.00
12568;DHT22;6349;50.904;6.136;2024-03-02T10:20:49;10.80;1.00
12568;DHT22;6349;50.904;6.136;2024-03-02T10:22:50;10.80;1.00
12568;DHT22;6349;50.904;6.136;2024-03-02T10:24:51;10.80;1.00
12568;DHT22;6349;50.904;6.136;2024-03-02T10:26:52;10.80;1.00
12568;DHT22;6349;50.904;6.136;2024-03-02T10:28:53;10.90;1.00
12568;DHT22;6349;50.904;6.136;2024-03-02T10:30:59;10.90;1.00
12568;DHT22;6349;50.904;6.136;2024-03-02T10:33:03;10.90;1.00
12568;DHT22;6349;50.904;6.136;2024-03-02T10:35:06;11.00;1.00
12568;DHT22;6349;50.904;6.136;2024-03-02T10:37:07;11.00;1.00
12568;DHT22;6349;50.904;6.136;2024-03-02T10:39:08;11.10;1.00
12568;DHT22;6349;50.904;6.136;2024-03-02T10:41:09;11.10;1.00
12568;DHT22;6349;50.904;6.136;2024-03-02T10:43:11;11.20;1.00
12568;DHT22;6349;50.904;6.136;2024-03-02T10:45:15;11.20;1.00
12568;DHT22;6349;50.904;6.136;2024-03-02T10:47:18;11.30;1.00
12568;DHT22;6349;50.904;6.136;2024-03-02T10:49:20;11.30;1.00
12568;DHT22;6349;50.904;6.136;2024-03-02T10:51:22;11.20;1.00
12568;DHT22;6349;50.904;6.136;2024-03-02T10:53:23;11.30;1.00
12568;DHT22;6349;50.904;6.136;2024-03-02T10:55:24;11.40;1.00
12568;DHT22;6349;50.904;6.136;2024-03-02T10:57:25;11.50;1.00
12568;DHT22;6349;50.904;6.136;2024-03-02T10:59:28;11.60;1.00
12568;DHT22;6349;50.904;6.136;2024-03-02T11:01:33;11.60;1.00
12568;DHT22;6349;50.904;6.136;2024-03-02T11:03:36;11.60;1.00
12568;DHT22;6349;50.904;6.136;2024-03-02T11:05:43;11.70;1.00
12568;DHT22;6349;50.904;6.136;2024-03-02T11:07:45;11.70;1.00
12568;DHT22;6349;50.904;6.136;2024-03-02T11:10:01;11.80;1.00
12568;DHT22;6349;50.904;6.136;2024-03-02T11:12:23;11.80;1.00
12568;DHT22;6349;50.904;6.136;2024-03-02T11:14:24;11.80;1.00
12568;DHT22;6349;50.904;6.136;2024-03-02T11:16:34;11.80;1.00
12568;DHT22;6349;50.904;6.136;2024-03-02T11:18:36;11.90;1.00
12568;DHT22;6349;50.904;6.136;2024-03-02T11:20:41;12.00;1.00
12568;DHT22;6349;50.904;6.136;2024-03-02T11:22:42;11.90;1.00
12568;DHT22;6349;50.904;6.136;2024-03-02T11:24:48;12.00;1.00
12568;DHT22;6349;50.904;6.136;2024-03-02T11:26:50;12.00;1.00
12568;DHT22;6349;50.904;6.136;2024-03-02T11:28:53;12.10;1.00
12568;DHT22;6349;50.904;6.136;2024-03-02T11:30:54;12.20;1.00
12568;DHT22;6349;50.904;6.136;2024-03-02T11:32:55;12.30;1.00
12568;DHT22;6349;50.904;6.136;2024-03-02T11:34:56;12.30;1.00
12568;DHT22;6349;50.904;6.136;2024-03-02T11:37:06;12.40;1.00
12568;DHT22;6349;50.904;6.136;2024-03-02T11:39:07;12.50;1.00
12568;DHT22;6349;50.904;6.136;2024-03-02T11:41:08;12.60;1.00
12568;DHT22;6349;50.904;6.136;2024-03-02T11:43:09;12.70;1.00
12568;DHT22;6349;50.904;6.136;2024-03-02T11:45:11;12.80;1.00
12568;DHT22;6349;50.904;6.136;2024-03-02T11:47:13;13.00;1.00
12568;DHT22;6349;50.904;6.136;2024-03-02T11:49:15;13.10;1.00
12568;DHT22;6349;50.904;6.136;2024-03-02T11:51:16;13.10;1.00
12568;DHT22;6349;50.904;6.136;2024-03-02T11:53:17;13.10;99.90
12568;DHT22;6349;50.904;6.136;2024-03-02T11:55:19;13.10;99.90
12568;DHT22;6349;50.904;6.136;2024-03-02T11:57:21;13.20;99.90
12568;DHT22;6349;50.904;6.136;2024-03-02T11:59:26;13.20;99.90
12568;DHT22;6349;50.904;6.136;2024-03-02T12:01:27;13.30;99.90
12568;DHT22;6349;50.904;6.136;2024-03-02T12:03:28;13.30;99.90
12568;DHT22;6349;50.904;6.136;2024-03-02T12:05:30;13.40;99.90
12568;DHT22;6349;50.904;6.136;2024-03-02T12:07:30;13.40;99.90
12568;DHT22;6349;50.904;6.136;2024-03-02T12:09:32;13.50;99.90
12568;DHT22;6349;50.904;6.136;2024-03-02T12:11:32;13.50;99.90
12568;DHT22;6349;50.904;6.136;2024-03-02T12:13:33;13.50;99.90
12568;DHT22;6349;50.904;6.136;2024-03-02T12:15:35;13.50;99.90
12568;DHT22;6349;50.904;6.136;2024-03-02T12:17:39;13.40;99.90
12568;DHT22;6349;50.904;6.136;2024-03-02T12:19:40;13.40;99.90
12568;DHT22;6349;50.904;6.136;2024-03-02T12:21:40;13.40;99.90
12568;DHT22;6349;50.904;6.136;2024-03-02T12:23:41;13.50;99.90
12568;DHT22;6349;50.904;6.136;2024-03-02T12:25:42;13.50;99.90
12568;DHT22;6349;50.904;6.136;2024-03-02T12:27:42;13.60;99.90
12568;DHT22;6349;50.904;6.136;2024-03-02T12:29:43;13.50;99.90
12568;DHT22;6349;50.904;6.136;2024-03-02T12:31:44;13.50;99.90
12568;DHT22;6349;50.904;6.136;2024-03-02T12:33:46;13.60;99.90
12568;DHT22;6349;50.904;6.136;2024-03-02T12:35:48;13.70;99.90
12568;DHT22;6349;50.904;6.136;2024-03-02T12:37:49;13.70;99.90
12568;DHT22;6349;50.904;6.136;2024-03-02T12:39:50;13.90;99.90
12568;DHT22;6349;50.904;6.136;2024-03-02T12:41:51;13.90;99.90
12568;DHT22;6349;50.904;6.136;2024-03-02T12:43:51;14.00;99.90
12568;DHT22;6349;50.904;6.136;2024-03-02T12:45:53;14.10;99.90
12568;DHT22;6349;50.904;6.136;2024-03-02T12:47:56;14.10;99.90
12568;DHT22;6349;50.904;6.136;2024-03-02T12:49:56;14.10;99.90
12568;DHT22;6349;50.904;6.136;2024-03-02T12:51:57;14.00;99.90
12568;DHT22;6349;50.904;6.136;2024-03-02T12:53:58;13.90;99.90
12568;DHT22;6349;50.904;6.136;2024-03-02T12:55:59;13.80;99.90
12568;DHT22;6349;50.904;6.136;2024-03-02T12:58:00;13.70;99.90
12568;DHT22;6349;50.904;6.136;2024-03-02T13:00:05;13.70;99.90
12568;DHT22;6349;50.904;6.136;2024-03-02T13:02:19;13.70;99.90
12568;DHT22;6349;50.904;6.136;2024-03-02T13:04:27;13.60;99.90
12568;DHT22;6349;50.904;6.136;2024-03-02T13:06:28;13.60;99.90
12568;DHT22;6349;50.904;6.136;2024-03-02T13:08:29;13.50;99.90
12568;DHT22;6349;50.904;6.136;2024-03-02T13:10:31;13.60;99.90
12568;DHT22;6349;50.904;6.136;2024-03-02T13:12:32;13.50;99.90
12568;DHT22;6349;50.904;6.136;2024-03-02T13:14:33;13.40;99.90